Time;durP1;ratioP1;P1;durP2;ratioP2;P2;SDS_P1;SDS_P2;PMS_P1;PMS_P2;Temp;Humidity;BMP_temperature;BMP_pressure;BME280_temperature;BME280_humidity;BME280_pressure;Samples;Min_cycle;Max_cycle;Signal;HPM_P1;HPM_P2
2023/09/04 00:01:07;;;;;;;1.20;0.87;;;19.50;47.10;;;;;;5133962;27;20181;-50
2023/09/04 00:03:34;;;;;;;1.93;1.33;;;19.40;47.00;;;;;;5135249;27;20800;-50
2023/09/04 00:05:59;;;;;;;2.03;1.08;;;19.40;47.00;;;;;;5135034;27;20252;-56
2023/09/04 00:08:25;;;;;;;1.20;0.80;;;19.30;47.10;;;;;;5135328;27;20568;-53
2023/09/04 00:10:51;;;;;;;1.43;1.07;;;19.30;47.10;;;;;;5135269;27;20201;-51
2023/09/04 00:13:17;;;;;;;1.40;0.83;;;19.30;47.30;;;;;;5135091;27;20890;-50
2023/09/04 00:15:44;;;;;;;1.93;1.60;;;19.20;47.10;;;;;;5134744;27;20294;-52
2023/09/04 00:18:10;;;;;;;1.80;1.40;;;19.20;47.10;;;;;;5134856;27;20429;-50
2023/09/04 00:20:36;;;;;;;1.37;1.23;;;19.20;47.20;;;;;;5134980;27;20181;-51
2023/09/04 00:23:02;;;;;;;1.10;0.43;;;19.10;47.30;;;;;;5135032;27;20171;-53
2023/09/04 00:25:28;;;;;;;1.20;0.67;;;19.10;47.40;;;;;;5134816;27;20801;-51
2023/09/04 00:27:55;;;;;;;2.63;1.60;;;19.20;47.20;;;;;;5134987;27;20420;-51
2023/09/04 00:30:21;;;;;;;1.23;0.55;;;19.20;47.00;;;;;;5134733;27;20740;-51
2023/09/04 00:32:46;;;;;;;1.20;0.73;;;19.10;47.10;;;;;;5134671;27;20175;-53
2023/09/04 00:35:13;;;;;;;1.10;0.57;;;19.30;47.20;;;;;;5134515;27;20712;-51
2023/09/04 00:37:40;;;;;;;1.30;0.50;;;19.10;47.30;;;;;;5133354;27;20199;-50
2023/09/04 00:40:07;;;;;;;3.85;1.25;;;19.00;47.20;;;;;;5134558;27;20182;-53
2023/09/04 00:42:33;;;;;;;1.00;0.50;;;19.00;47.20;;;;;;5135108;27;20220;-53
2023/09/04 00:45:00;;;;;;;1.30;0.80;;;19.00;47.10;;;;;;5134860;27;20228;-52
2023/09/04 00:47:27;;;;;;;1.05;0.45;;;18.90;47.20;;;;;;5134547;27;20560;-53
2023/09/04 00:49:54;;;;;;;1.25;0.77;;;19.00;47.30;;;;;;5134364;27;20175;-53
2023/09/04 00:52:23;;;;;;;1.30;0.70;;;19.00;47.20;;;;;;5134579;27;20178;-51
2023/09/04 00:54:49;;;;;;;1.10;0.50;;;18.90;47.10;;;;;;5134305;27;20178;-51
2023/09/04 00:57:16;;;;;;;1.10;0.60;;;18.90;47.10;;;;;;5134190;27;20537;-54
2023/09/04 00:59:42;;;;;;;1.50;0.65;;;18.90;47.30;;;;;;5133981;27;20507;-50
2023/09/04 01:02:11;;;;;;;2.00;1.67;;;18.90;47.30;;;;;;5134140;27;20270;-52
2023/09/04 01:04:36;;;;;;;1.30;0.70;;;18.90;47.20;;;;;;5133708;27;20447;-52
2023/09/04 01:07:02;;;;;;;1.93;0.97;;;18.90;47.30;;;;;;5133880;27;20186;-50
2023/09/04 01:09:28;;;;;;;1.20;0.63;;;18.80;47.10;;;;;;5134011;27;20242;-52
2023/09/04 01:12:10;;;;;;;1.50;1.27;;;18.80;47.20;;;;;;5134217;27;20401;-53
2023/09/04 01:14:36;;;;;;;1.30;0.90;;;18.80;47.20;;;;;;5133727;27;20165;-51
2023/09/04 01:17:03;;;;;;;1.13;0.77;;;18.70;47.40;;;;;;5134002;27;20194;-50
2023/09/04 01:19:30;;;;;;;1.20;1.00;;;18.70;47.40;;;;;;5133815;27;20175;-53
2023/09/04 01:21:55;;;;;;;1.40;0.90;;;18.70;47.30;;;;;;5133780;27;20219;-54
2023/09/04 01:24:21;;;;;;;1.60;0.73;;;18.70;47.20;;;;;;5133482;27;20194;-51
2023/09/04 01:27:05;;;;;;;1.93;1.00;;;18.70;47.10;;;;;;5133746;27;20183;-51
2023/09/04 01:29:50;;;;;;;2.42;1.23;;;18.60;47.00;;;;;;5133631;27;20174;-53
2023/09/04 01:32:38;;;;;;;1.85;0.85;;;18.60;47.10;;;;;;5133919;27;20166;-54
2023/09/04 01:35:06;;;;;;;1.05;0.50;;;18.50;47.30;;;;;;5133164;27;20186;-51
2023/09/04 01:37:32;;;;;;;1.20;0.60;;;18.50;47.50;;;;;;5133376;27;20194;-55
2023/09/04 01:39:58;;;;;;;1.10;0.60;;;18.50;47.40;;;;;;5133506;27;20540;-49
2023/09/04 01:42:24;;;;;;;1.00;0.52;;;18.50;47.40;;;;;;5133613;27;20202;-50
2023/09/04 01:44:49;;;;;;;1.17;0.70;;;18.40;47.30;;;;;;5133073;27;20222;-52
2023/09/04 01:47:15;;;;;;;1.50;0.60;;;18.40;47.50;;;;;;5133298;27;20273;-50
2023/09/04 01:49:42;;;;;;;1.10;0.60;;;18.40;47.40;;;;;;5133001;27;20588;-52
2023/09/04 01:52:09;;;;;;;1.20;0.50;;;18.40;47.30;;;;;;5133244;27;20154;-50
2023/09/04 01:54:35;;;;;;;1.20;0.70;;;18.40;47.30;;;;;;5132963;27;20190;-49
2023/09/04 01:57:01;;;;;;;1.08;0.70;;;18.40;47.30;;;;;;5133046;27;20190;-51
2023/09/04 01:59:27;;;;;;;1.23;0.60;;;18.40;47.40;;;;;;5133438;27;20174;-51
2023/09/04 02:01:52;;;;;;;1.10;0.63;;;18.40;47.30;;;;;;5133136;27;20513;-49
2023/09/04 02:04:18;;;;;;;1.77;0.77;;;18.40;47.30;;;;;;5132965;27;20298;-52
2023/09/04 02:06:44;;;;;;;2.33;0.50;;;18.40;47.00;;;;;;5133283;27;20209;-52
2023/09/04 02:09:09;;;;;;;1.43;1.00;;;18.30;46.90;;;;;;5133069;27;20660;-50
2023/09/04 02:11:35;;;;;;;1.20;0.60;;;18.30;47.00;;;;;;5132979;27;20246;-52
2023/09/04 02:14:01;;;;;;;1.17;0.70;;;17.30;46.80;;;;;;5132963;28;20239;-49
2023/09/04 02:16:27;;;;;;;1.27;0.53;;;18.20;47.20;;;;;;5132694;27;20188;-51
2023/09/04 02:18:55;;;;;;;1.10;0.80;;;18.20;47.20;;;;;;5132780;28;20182;-50
2023/09/04 02:21:20;;;;;;;1.10;0.57;;;18.20;47.30;;;;;;5132911;28;20220;-54
2023/09/04 02:23:47;;;;;;;1.40;1.00;;;18.10;47.40;;;;;;5132888;28;20203;-49
2023/09/04 02:26:12;;;;;;;1.20;0.63;;;18.10;47.40;;;;;;5132633;27;20194;-52
2023/09/04 02:28:38;;;;;;;2.30;1.13;;;18.10;47.50;;;;;;5132953;28;20201;-52
2023/09/04 02:31:08;;;;;;;2.50;0.97;;;18.10;47.50;;;;;;5132822;27;20180;-49
2023/09/04 02:33:35;;;;;;;1.00;0.40;;;18.00;47.30;;;;;;5132733;27;20451;-49
2023/09/04 02:36:01;;;;;;;1.00;0.40;;;18.00;47.30;;;;;;5132448;27;20210;-54
2023/09/04 02:38:26;;;;;;;1.00;0.30;;;18.00;47.40;;;;;;5132719;27;20601;-50
2023/09/04 02:40:52;;;;;;;1.70;1.13;;;18.00;47.30;;;;;;5132741;28;20400;-53
2023/09/04 02:43:18;;;;;;;1.20;0.80;;;18.00;47.30;;;;;;5133001;28;20637;-53
2023/09/04 02:45:47;;;;;;;1.10;0.70;;;18.00;47.30;;;;;;5132288;28;20656;-50
2023/09/04 02:48:13;;;;;;;1.90;0.93;;;18.00;47.20;;;;;;5132787;27;20195;-54
2023/09/04 02:50:40;;;;;;;1.07;0.47;;;18.00;47.20;;;;;;5132679;28;20562;-50
2023/09/04 02:53:05;;;;;;;1.10;0.60;;;18.00;47.40;;;;;;5132610;28;20449;-53
2023/09/04 02:55:31;;;;;;;1.23;0.60;;;17.90;47.30;;;;;;5132295;28;20574;-53
2023/09/04 02:57:57;;;;;;;1.33;0.87;;;17.90;47.30;;;;;;5132811;27;20186;-51
2023/09/04 03:00:23;;;;;;;1.92;1.05;;;17.90;47.40;;;;;;5133746;27;20233;-53
2023/09/04 03:02:50;;;;;;;1.10;0.60;;;17.90;47.30;;;;;;5136454;27;20734;-52
2023/09/04 03:05:16;;;;;;;1.25;0.73;;;17.90;47.20;;;;;;5136380;27;20202;-52
2023/09/04 03:07:42;;;;;;;1.40;0.93;;;17.90;47.20;;;;;;5135000;27;20725;-53
2023/09/04 03:10:08;;;;;;;1.10;0.67;;;17.90;47.20;;;;;;5136328;27;20170;-50
2023/09/04 03:12:34;;;;;;;1.10;0.60;;;17.90;47.10;;;;;;5136303;27;20408;-50
2023/09/04 03:15:05;;;;;;;1.20;0.65;;;17.80;47.10;;;;;;5135910;27;20407;-54
2023/09/04 03:17:32;;;;;;;1.85;1.00;;;17.80;47.20;;;;;;5136062;27;20191;-51
2023/09/04 03:19:58;;;;;;;1.10;0.40;;;17.80;47.30;;;;;;5136457;27;20196;-51
2023/09/04 03:22:25;;;;;;;1.13;0.60;;;17.80;47.40;;;;;;5136164;27;20171;-52
2023/09/04 03:24:52;;;;;;;1.00;0.40;;;17.80;47.40;;;;;;5135786;27;20212;-52
2023/09/04 03:27:18;;;;;;;1.40;1.17;;;17.80;47.20;;;;;;5135935;27;20191;-50
2023/09/04 03:29:44;;;;;;;1.13;0.73;;;17.80;47.20;;;;;;5135887;27;20703;-53
2023/09/04 03:32:10;;;;;;;1.87;0.83;;;17.70;47.20;;;;;;5135984;27;20411;-51
2023/09/04 03:34:37;;;;;;;1.10;0.70;;;17.70;47.20;;;;;;5135548;27;20444;-53
2023/09/04 03:37:03;;;;;;;5.10;0.70;;;17.70;47.20;;;;;;5135739;27;20438;-49
2023/09/04 03:39:33;;;;;;;1.20;1.00;;;17.70;47.40;;;;;;5135901;27;20269;-53
2023/09/04 03:41:59;;;;;;;1.73;0.93;;;17.60;47.30;;;;;;5135799;27;20167;-51
2023/09/04 03:44:26;;;;;;;1.17;0.80;;;17.60;47.30;;;;;;5135487;27;20194;-50
2023/09/04 03:46:52;;;;;;;1.00;0.40;;;17.70;47.40;;;;;;5135870;27;20194;-49
2023/09/04 03:49:17;;;;;;;1.23;0.73;;;17.60;47.20;;;;;;5136067;27;20169;-52
2023/09/04 03:51:43;;;;;;;1.20;0.57;;;17.60;47.30;;;;;;5135696;27;20173;-52
2023/09/04 03:54:09;;;;;;;1.38;0.80;;;17.60;47.20;;;;;;5135483;27;20254;-49
2023/09/04 03:56:35;;;;;;;1.70;0.90;;;17.60;47.20;;;;;;5135673;27;20668;-50
2023/09/04 03:59:01;;;;;;;1.10;0.70;;;17.60;47.10;;;;;;5135810;27;20179;-52
2023/09/04 04:01:28;;;;;;;1.43;0.50;;;17.60;47.10;;;;;;5135851;27;20420;-53
2023/09/04 04:03:53;;;;;;;3.35;1.00;;;17.50;47.10;;;;;;5135480;27;20652;-51
2023/09/04 04:06:22;;;;;;;1.10;0.60;;;17.50;47.40;;;;;;5135557;27;20285;-52
2023/09/04 04:08:50;;;;;;;1.00;0.47;;;17.50;47.30;;;;;;5135382;27;20197;-53
2023/09/04 04:11:16;;;;;;;1.13;0.73;;;17.50;47.40;;;;;;5135277;27;20246;-50
2023/09/04 04:13:42;;;;;;;1.40;0.70;;;17.40;47.50;;;;;;5135500;27;20167;-51
2023/09/04 04:16:09;;;;;;;5.50;1.37;;;17.50;47.70;;;;;;5135043;27;20177;-55
2023/09/04 04:18:34;;;;;;;1.25;0.82;;;17.50;47.70;;;;;;5135288;27;20207;-53
2023/09/04 04:21:00;;;;;;;1.27;0.90;;;17.50;47.60;;;;;;5135468;27;20179;-51
2023/09/04 04:23:26;;;;;;;1.20;0.67;;;17.50;47.40;;;;;;5135018;27;20552;-52
2023/09/04 04:25:52;;;;;;;1.50;0.90;;;17.50;47.40;;;;;;5134668;27;20266;-54
2023/09/04 04:28:19;;;;;;;1.50;0.80;;;17.50;47.50;;;;;;5134934;27;20209;-50
2023/09/04 04:30:45;;;;;;;1.10;0.75;;;17.50;47.50;;;;;;5134866;27;20159;-52
2023/09/04 04:33:11;;;;;;;4.80;1.65;;;17.50;47.40;;;;;;5134778;27;20274;-55
2023/09/04 04:35:36;;;;;;;1.30;0.73;;;17.50;47.50;;;;;;5134406;27;20276;-51
2023/09/04 04:38:02;;;;;;;1.20;0.70;;;17.50;48.30;;;;;;5134506;27;20424;-56
2023/09/04 04:40:29;;;;;;;1.10;0.63;;;17.50;47.70;;;;;;5133256;27;20408;-50
2023/09/04 04:42:56;;;;;;;1.10;0.70;;;17.60;47.70;;;;;;5134538;27;20432;-53
2023/09/04 04:45:22;;;;;;;1.40;0.95;;;17.50;47.80;;;;;;5134224;27;20679;-55
2023/09/04 04:47:48;;;;;;;1.20;0.70;;;17.50;47.90;;;;;;5134369;27;20239;-52
2023/09/04 04:50:14;;;;;;;1.30;1.20;;;17.50;48.00;;;;;;5134408;27;20163;-50
2023/09/04 04:52:40;;;;;;;1.20;0.90;;;17.60;48.00;;;;;;5134315;27;20401;-56
2023/09/04 04:55:06;;;;;;;1.10;0.80;;;17.60;48.10;;;;;;5134038;27;20450;-56
2023/09/04 04:57:35;;;;;;;1.42;0.52;;;17.60;48.20;;;;;;5134436;27;20198;-49
2023/09/04 05:00:06;;;;;;;1.05;0.52;;;17.60;48.20;;;;;;5134293;27;20640;-54
2023/09/04 05:02:35;;;;;;;1.10;0.65;;;17.70;48.30;;;;;;5134478;27;20170;-53
2023/09/04 05:05:01;;;;;;;1.05;0.50;;;17.70;48.20;;;;;;5134083;27;20240;-51
2023/09/04 05:07:29;;;;;;;1.13;0.47;;;17.80;48.30;;;;;;5133861;27;20555;-57
2023/09/04 05:09:56;;;;;;;1.15;0.65;;;17.80;48.30;;;;;;5134130;27;20167;-56
2023/09/04 05:12:22;;;;;;;4.50;1.33;;;17.90;48.50;;;;;;5133962;27;20229;-49
2023/09/04 05:14:48;;;;;;;1.20;0.65;;;18.00;48.40;;;;;;5133665;27;20185;-56
2023/09/04 05:17:14;;;;;;;1.10;0.60;;;18.00;48.40;;;;;;5133815;27;20644;-54
2023/09/04 05:19:40;;;;;;;1.20;0.90;;;18.10;48.50;;;;;;5133863;27;20171;-51
2023/09/04 05:22:05;;;;;;;1.40;0.83;;;18.20;48.50;;;;;;5133750;27;20246;-54
2023/09/04 05:24:31;;;;;;;1.20;0.90;;;18.20;48.50;;;;;;5132910;27;20207;-51
2023/09/04 05:26:57;;;;;;;1.40;0.70;;;18.30;48.70;;;;;;5133597;27;20186;-53
2023/09/04 05:29:24;;;;;;;1.33;0.70;;;18.40;48.70;;;;;;5133761;27;20632;-56
2023/09/04 05:31:53;;;;;;;1.30;1.00;;;18.50;48.70;;;;;;5133688;27;20167;-49
2023/09/04 05:34:19;;;;;;;1.20;0.80;;;18.50;48.80;;;;;;5133595;27;20560;-58
2023/09/04 05:36:46;;;;;;;1.30;0.77;;;18.60;48.60;;;;;;5133336;27;20183;-56
2023/09/04 05:39:12;;;;;;;1.00;0.50;;;18.70;49.30;;;;;;5133544;27;20162;-51
2023/09/04 05:41:37;;;;;;;1.10;0.60;;;18.80;48.40;;;;;;5133720;27;20185;-51
2023/09/04 05:44:04;;;;;;;1.33;0.87;;;18.90;48.40;;;;;;5133586;27;20400;-57
2023/09/04 05:46:32;;;;;;;1.30;0.85;;;19.00;48.30;;;;;;5133208;27;20194;-51
2023/09/04 05:48:58;;;;;;;1.55;0.88;;;19.10;48.40;;;;;;5133454;27;20178;-51
2023/09/04 05:51:25;;;;;;;1.20;0.60;;;19.20;48.20;;;;;;5133298;27;20169;-55
2023/09/04 05:53:51;;;;;;;1.35;0.80;;;19.20;48.10;;;;;;5133294;27;20396;-51
2023/09/04 05:56:17;;;;;;;1.13;0.70;;;19.30;48.10;;;;;;5133073;27;20174;-50
2023/09/04 05:58:52;;;;;;;1.13;0.63;;;19.40;48.10;;;;;;5133520;27;20251;-53
2023/09/04 06:01:19;;;;;;;2.10;0.90;;;19.50;48.20;;;;;;5133146;27;20551;-56
2023/09/04 06:03:46;;;;;;;1.10;0.50;;;19.60;47.90;;;;;;5132959;27;20586;-52
2023/09/04 06:06:12;;;;;;;1.30;0.80;;;19.60;47.80;;;;;;5132873;27;20277;-51
2023/09/04 06:08:38;;;;;;;1.30;1.08;;;19.70;47.80;;;;;;5133236;27;20303;-54
2023/09/04 06:11:04;;;;;;;1.03;0.50;;;19.80;47.70;;;;;;5133206;27;20506;-51
2023/09/04 06:13:31;;;;;;;1.60;0.88;;;19.90;47.80;;;;;;5133264;27;20412;-51
2023/09/04 06:15:58;;;;;;;1.70;1.20;;;19.90;48.20;;;;;;5132721;27;20175;-51
2023/09/04 06:18:24;;;;;;;2.15;0.90;;;19.90;47.30;;;;;;5132835;28;20626;-55
2023/09/04 06:20:50;;;;;;;1.10;0.60;;;19.90;47.50;;;;;;5132940;28;20170;-50
2023/09/04 06:23:16;;;;;;;1.25;0.80;;;19.90;47.40;;;;;;5132923;27;20258;-56
2023/09/04 06:25:43;;;;;;;1.13;0.67;;;19.90;47.60;;;;;;5132688;28;20230;-50
2023/09/04 06:28:10;;;;;;;1.10;0.50;;;20.00;47.40;;;;;;5132881;27;20432;-51
2023/09/04 06:30:36;;;;;;;1.20;0.90;;;20.00;47.70;;;;;;5132847;27;20215;-57
2023/09/04 06:33:02;;;;;;;2.03;0.80;;;20.10;47.80;;;;;;5132866;27;20246;-52
2023/09/04 06:35:28;;;;;;;1.10;0.65;;;20.30;47.80;;;;;;5133970;27;20200;-51
2023/09/04 06:37:55;;;;;;;1.80;1.10;;;20.30;47.70;;;;;;5136960;27;20190;-53
2023/09/04 06:40:21;;;;;;;1.52;1.02;;;20.50;47.60;;;;;;5137076;27;20395;-54
2023/09/04 06:42:46;;;;;;;1.20;0.50;;;20.50;47.20;;;;;;5137166;27;20258;-51
2023/09/04 06:45:13;;;;;;;1.53;0.90;;;20.60;47.30;;;;;;5136571;27;20462;-51
2023/09/04 06:47:39;;;;;;;1.30;0.80;;;20.60;47.00;;;;;;5136640;27;20210;-56
2023/09/04 06:50:08;;;;;;;2.67;1.60;;;20.70;47.30;;;;;;5137059;27;20399;-51
2023/09/04 06:52:37;;;;;;;1.13;0.70;;;20.70;46.70;;;;;;5136765;27;20163;-50
2023/09/04 06:55:04;;;;;;;1.10;0.53;;;20.70;46.40;;;;;;5136456;27;20403;-56
2023/09/04 06:57:30;;;;;;;2.38;0.98;;;20.70;47.10;;;;;;5136581;27;20846;-50
2023/09/04 06:59:57;;;;;;;1.10;0.50;;;20.70;46.50;;;;;;5136841;27;20202;-55
2023/09/04 07:02:23;;;;;;;1.35;0.60;;;20.80;46.60;;;;;;5136397;27;20185;-52
2023/09/04 07:04:49;;;;;;;1.60;0.70;;;20.90;47.10;;;;;;5134875;27;20218;-53
2023/09/04 07:07:15;;;;;;;1.30;0.97;;;21.00;46.50;;;;;;5136449;27;20981;-51
2023/09/04 07:09:40;;;;;;;1.80;1.00;;;21.00;46.50;;;;;;5136402;27;20403;-51
2023/09/04 07:12:07;;;;;;;1.10;0.60;;;21.20;46.70;;;;;;5136364;27;20166;-54
2023/09/04 07:14:33;;;;;;;1.58;0.90;;;21.20;46.50;;;;;;5136031;27;20170;-55
2023/09/04 07:16:59;;;;;;;1.37;1.00;;;21.30;46.40;;;;;;5136078;27;20195;-50
2023/09/04 07:19:24;;;;;;;1.40;0.67;;;21.40;46.50;;;;;;5136069;27;20647;-52
2023/09/04 07:21:50;;;;;;;1.20;0.60;;;21.50;46.80;;;;;;5136132;27;20449;-55
2023/09/04 07:24:16;;;;;;;1.10;0.70;;;21.50;45.60;;;;;;5135780;27;20542;-51
2023/09/04 07:26:42;;;;;;;1.00;0.47;;;21.60;46.00;;;;;;5136244;27;20177;-53
2023/09/04 07:29:08;;;;;;;1.20;0.80;;;21.70;46.40;;;;;;5135895;27;20404;-54
2023/09/04 07:31:34;;;;;;;1.20;0.57;;;21.80;46.60;;;;;;5136238;27;20500;-51
2023/09/04 07:34:00;;;;;;;1.30;1.10;;;22.00;46.30;;;;;;5135861;27;20186;-54
2023/09/04 07:36:26;;;;;;;1.30;0.60;;;22.00;45.70;;;;;;5135531;27;20186;-51
2023/09/04 07:38:52;;;;;;;2.00;0.90;;;22.10;45.40;;;;;;5135951;27;20408;-52
2023/09/04 07:41:18;;;;;;;1.20;0.83;;;22.10;44.00;;;;;;5135768;27;20202;-55
2023/09/04 07:43:43;;;;;;;1.30;0.60;;;22.10;44.60;;;;;;5135691;27;20199;-51
2023/09/04 07:46:09;;;;;;;1.10;0.70;;;22.10;43.00;;;;;;5135178;27;20880;-53
2023/09/04 07:48:35;;;;;;;2.90;0.83;;;22.10;45.00;;;;;;5135779;27;20277;-57
2023/09/04 07:51:04;;;;;;;1.10;0.47;;;22.20;45.40;;;;;;5135603;27;20174;-52
2023/09/04 07:53:29;;;;;;;1.40;0.87;;;22.40;45.50;;;;;;5135549;27;20163;-50
2023/09/04 07:55:55;;;;;;;1.60;0.80;;;22.50;45.40;;;;;;5135302;27;20444;-50
2023/09/04 07:58:21;;;;;;;1.10;0.53;;;22.60;45.50;;;;;;5135329;27;20183;-54
2023/09/04 08:00:50;;;;;;;1.20;0.70;;;22.70;41.90;;;;;;5135430;27;20201;-50
2023/09/04 08:03:16;;;;;;;1.20;0.50;;;22.70;42.70;;;;;;5135346;27;20171;-50
2023/09/04 08:05:43;;;;;;;2.60;1.00;;;22.70;43.80;;;;;;5134930;27;20451;-55
2023/09/04 08:08:10;;;;;;;1.20;0.70;;;22.80;43.30;;;;;;5135456;27;20427;-56
2023/09/04 08:10:43;;;;;;;1.20;0.70;;;22.80;42.40;;;;;;5135250;27;20412;-51
2023/09/04 08:13:14;;;;;;;1.30;0.63;;;22.80;43.00;;;;;;5135295;27;20419;-51
2023/09/04 08:15:40;;;;;;;1.30;1.00;;;22.90;43.40;;;;;;5135146;27;20422;-56
2023/09/04 08:18:07;;;;;;;1.10;0.60;;;22.90;42.10;;;;;;5135063;27;20431;-49
2023/09/04 08:20:33;;;;;;;1.40;0.70;;;23.00;43.20;;;;;;5134972;27;20457;-51
2023/09/04 08:22:59;;;;;;;2.13;0.70;;;23.10;43.30;;;;;;5135028;27;20423;-51
2023/09/04 08:25:25;;;;;;;1.30;0.80;;;23.20;43.00;;;;;;5134888;27;20489;-50
2023/09/04 08:27:51;;;;;;;1.20;0.63;;;23.30;43.60;;;;;;5135029;27;20432;-55
2023/09/04 08:30:17;;;;;;;1.40;0.90;;;23.50;44.00;;;;;;5135147;27;20197;-52
2023/09/04 08:32:44;;;;;;;1.20;0.70;;;23.60;42.90;;;;;;5134730;27;20513;-50
2023/09/04 08:35:11;;;;;;;1.10;0.60;;;23.60;42.50;;;;;;5134558;27;21030;-54
2023/09/04 08:37:37;;;;;;;1.00;0.47;;;23.70;43.30;;;;;;5134821;27;20455;-52
2023/09/04 08:40:03;;;;;;;1.40;0.60;;;23.90;43.30;;;;;;5134476;27;20934;-52
2023/09/04 08:42:29;;;;;;;1.67;0.70;;;24.00;43.60;;;;;;5134560;27;20412;-55
2023/09/04 08:44:57;;;;;;;1.00;0.50;;;24.10;43.60;;;;;;5134269;27;20452;-50
2023/09/04 08:47:23;;;;;;;1.33;0.57;;;24.20;43.30;;;;;;5134661;27;20488;-52
2023/09/04 08:49:50;;;;;;;1.30;0.70;;;24.30;43.00;;;;;;5134526;27;20456;-54
2023/09/04 08:52:16;;;;;;;1.20;0.70;;;24.40;42.90;;;;;;5134395;27;20921;-52
2023/09/04 08:54:42;;;;;;;1.20;1.00;;;24.50;42.80;;;;;;5134033;27;20404;-51
2023/09/04 08:57:08;;;;;;;1.30;0.57;;;24.50;43.00;;;;;;5134095;27;20431;-52
2023/09/04 08:59:34;;;;;;;1.37;0.87;;;24.60;41.50;;;;;;5133622;27;20412;-53
2023/09/04 09:02:04;;;;;;;1.30;0.60;;;24.50;40.90;;;;;;5134128;27;20406;-50
2023/09/04 09:04:31;;;;;;;1.10;0.40;;;24.60;41.40;;;;;;5133779;27;20181;-55
2023/09/04 09:06:57;;;;;;;1.00;0.40;;;24.60;41.40;;;;;;5133992;27;20420;-50
2023/09/04 09:09:24;;;;;;;1.10;0.50;;;24.70;40.60;;;;;;5134243;27;20407;-54
2023/09/04 09:11:53;;;;;;;1.10;0.50;;;24.70;40.80;;;;;;5134269;27;20400;-51
2023/09/04 09:14:20;;;;;;;1.03;0.57;;;24.70;37.00;;;;;;5133728;27;20990;-49
2023/09/04 09:16:46;;;;;;;1.07;0.50;;;24.70;39.00;;;;;;5133771;27;20511;-54
2023/09/04 09:19:13;;;;;;;1.40;0.70;;;24.80;40.40;;;;;;5134136;27;20493;-51
2023/09/04 09:21:39;;;;;;;1.17;0.67;;;24.80;39.90;;;;;;5133720;27;20177;-55
2023/09/04 09:24:10;;;;;;;1.50;0.53;;;24.90;40.50;;;;;;5133631;27;20400;-54
2023/09/04 09:26:42;;;;;;;1.10;0.50;;;25.00;39.70;;;;;;5133739;27;20459;-50
2023/09/04 09:29:08;;;;;;;1.40;0.80;;;24.90;38.70;;;;;;5133808;27;20404;-54
2023/09/04 09:31:36;;;;;;;1.10;0.50;;;25.00;39.60;;;;;;5133617;27;20512;-51
2023/09/04 09:34:03;;;;;;;1.73;0.77;;;25.10;39.90;;;;;;5133480;27;20400;-49
2023/09/04 09:36:29;;;;;;;1.20;0.70;;;25.20;39.00;;;;;;5133145;27;20515;-53
2023/09/04 09:38:55;;;;;;;1.10;0.43;;;25.20;37.60;;;;;;5133739;27;20817;-51
2023/09/04 09:41:20;;;;;;;1.50;0.50;;;25.20;36.50;;;;;;5133457;27;20524;-55
2023/09/04 09:43:46;;;;;;;1.10;0.60;;;25.20;38.40;;;;;;5133424;27;20205;-54
2023/09/04 09:46:16;;;;;;;1.40;0.63;;;25.30;38.70;;;;;;5133334;27;20739;-50
2023/09/04 09:48:44;;;;;;;2.20;0.60;;;25.40;39.10;;;;;;5133473;27;20222;-56
2023/09/04 09:51:10;;;;;;;1.00;0.40;;;25.50;39.00;;;;;;5133395;27;20899;-56
2023/09/04 09:53:52;;;;;;;1.20;0.47;;;25.60;38.50;;;;;;5133367;27;20392;-51
2023/09/04 09:56:20;;;;;;;1.10;0.70;;;25.50;37.80;;;;;;5132980;27;20404;-53
2023/09/04 09:58:48;;;;;;;1.20;0.60;;;25.50;37.90;;;;;;5133175;27;20786;-52
2023/09/04 10:01:15;;;;;;;1.40;0.90;;;25.60;36.70;;;;;;5133065;27;20412;-58
2023/09/04 10:03:43;;;;;;;1.17;0.70;;;25.70;37.30;;;;;;5133164;27;20408;-55
2023/09/04 10:06:14;;;;;;;1.37;1.10;;;25.60;34.70;;;;;;5133008;27;20451;-49
2023/09/04 10:08:43;;;;;;;1.40;0.80;;;25.50;36.10;;;;;;5133099;27;20448;-54
2023/09/04 10:11:18;;;;;;;1.10;0.50;;;25.50;36.80;;;;;;5133017;27;20392;-56
2023/09/04 10:13:57;;;;;;;1.20;0.57;;;25.70;37.40;;;;;;5132953;27;20819;-52
2023/09/04 10:16:35;;;;;;;1.10;0.50;;;25.80;37.80;;;;;;5132760;27;21013;-57
2023/09/04 10:19:02;;;;;;;1.00;0.40;;;25.90;38.00;;;;;;5133200;27;20407;-56
2023/09/04 10:21:33;;;;;;;2.60;0.93;;;26.00;38.10;;;;;;5133051;27;20539;-52
2023/09/04 10:24:07;;;;;;;1.20;0.70;;;26.10;37.50;;;;;;5133258;27;20403;-52
2023/09/04 10:26:45;;;;;;;1.30;0.53;;;26.10;34.50;;;;;;5132730;27;21005;-53
2023/09/04 10:29:18;;;;;;;1.63;0.50;;;26.10;36.50;;;;;;5133104;27;20895;-53
2023/09/04 10:31:45;;;;;;;1.00;0.30;;;26.20;37.10;;;;;;5132802;27;20410;-57
2023/09/04 10:34:11;;;;;;;1.63;0.73;;;26.30;37.20;;;;;;5132572;27;20901;-56
2023/09/04 10:36:38;;;;;;;1.10;0.50;;;26.30;37.20;;;;;;5132631;27;20505;-57
2023/09/04 10:39:06;;;;;;;1.10;0.50;;;26.40;37.20;;;;;;5133013;27;20416;-56
2023/09/04 10:41:33;;;;;;;1.20;0.60;;;26.40;36.10;;;;;;5133048;27;20504;-51
2023/09/04 10:43:59;;;;;;;1.07;0.30;;;26.40;37.30;;;;;;5132849;27;20407;-54
2023/09/04 10:46:25;;;;;;;1.10;0.67;;;26.60;37.10;;;;;;5132507;27;20809;-58
2023/09/04 10:48:52;;;;;;;1.30;0.70;;;26.60;37.10;;;;;;5132661;27;20435;-51
2023/09/04 10:51:24;;;;;;;1.33;0.53;;;26.70;37.20;;;;;;5132609;27;20159;-55
2023/09/04 10:53:50;;;;;;;1.30;0.60;;;26.90;37.50;;;;;;5132566;27;20400;-56
2023/09/04 10:56:16;;;;;;;1.20;0.57;;;27.00;37.30;;;;;;5132402;27;20500;-52
2023/09/04 10:59:04;;;;;;;1.10;0.40;;;27.00;36.50;;;;;;5132406;27;20230;-57
2023/09/04 11:01:37;;;;;;;1.47;1.03;;;27.00;37.10;;;;;;5132837;28;20194;-53
2023/09/04 11:04:09;;;;;;;1.40;0.70;;;27.10;37.30;;;;;;5132451;27;20400;-55
2023/09/04 11:06:39;;;;;;;1.57;0.70;;;27.20;37.20;;;;;;5132310;27;20448;-51
2023/09/04 11:09:05;;;;;;;1.20;0.53;;;27.30;36.90;;;;;;5132590;28;20393;-57
2023/09/04 11:11:32;;;;;;;1.20;0.50;;;27.30;36.00;;;;;;5132580;27;20415;-56
2023/09/04 11:14:03;;;;;;;1.00;0.40;;;27.40;36.70;;;;;;5132335;27;20910;-53
2023/09/04 11:16:50;;;;;;;1.13;0.43;;;27.40;36.80;;;;;;5132094;27;20432;-55
2023/09/04 11:19:18;;;;;;;1.20;0.80;;;27.40;35.70;;;;;;5132530;28;20402;-52
2023/09/04 11:21:45;;;;;;;1.10;0.50;;;27.40;36.50;;;;;;5134078;27;20427;-52
2023/09/04 11:24:11;;;;;;;1.63;0.80;;;27.50;36.80;;;;;;5135974;27;20407;-56
2023/09/04 11:26:37;;;;;;;2.90;1.23;;;27.50;36.80;;;;;;5135874;27;20953;-54
2023/09/04 11:29:05;;;;;;;1.63;0.80;;;27.50;36.20;;;;;;5135947;27;20198;-54
2023/09/04 11:31:32;;;;;;;1.30;0.60;;;27.50;36.60;;;;;;5135969;27;20404;-57
2023/09/04 11:33:58;;;;;;;1.10;0.70;;;27.60;36.50;;;;;;5135939;27;20909;-55
2023/09/04 11:36:25;;;;;;;1.00;0.40;;;27.60;36.50;;;;;;5135594;27;20431;-52
2023/09/04 11:39:06;;;;;;;1.17;0.53;;;27.70;36.70;;;;;;5135797;27;20495;-57
2023/09/04 11:41:32;;;;;;;1.40;0.70;;;27.70;36.50;;;;;;5135951;27;20969;-52
2023/09/04 11:43:59;;;;;;;1.30;0.70;;;27.70;36.30;;;;;;5135723;27;20475;-56
2023/09/04 11:46:26;;;;;;;1.00;0.40;;;27.80;36.10;;;;;;5135772;27;20475;-52
2023/09/04 11:48:51;;;;;;;1.40;0.70;;;27.80;35.40;;;;;;5135975;27;20407;-53
2023/09/04 11:51:17;;;;;;;1.10;0.60;;;27.70;34.90;;;;;;5135623;27;20396;-57
2023/09/04 11:53:44;;;;;;;1.20;0.60;;;27.80;35.70;;;;;;5135430;27;20531;-51
2023/09/04 11:56:10;;;;;;;1.00;0.30;;;27.80;35.50;;;;;;5135640;27;20236;-53
2023/09/04 11:58:37;;;;;;;1.20;0.60;;;27.90;35.60;;;;;;5135301;27;20428;-57
2023/09/04 12:01:02;;;;;;;1.00;0.40;;;27.90;35.80;;;;;;5135560;27;20202;-51
2023/09/04 12:03:28;;;;;;;1.73;0.80;;;27.90;33.20;;;;;;5135703;27;20411;-51
2023/09/04 12:05:55;;;;;;;1.93;0.70;;;27.90;32.40;;;;;;5135368;27;20224;-56
2023/09/04 12:08:21;;;;;;;1.20;0.47;;;27.90;34.40;;;;;;5135088;27;20597;-51
2023/09/04 12:10:50;;;;;;;1.10;0.50;;;27.90;33.00;;;;;;5135203;27;20400;-53
2023/09/04 12:13:16;;;;;;;1.10;0.40;;;27.90;34.20;;;;;;5135441;27;20400;-58
2023/09/04 12:15:42;;;;;;;1.20;0.40;;;27.90;33.10;;;;;;5135236;27;20909;-53
2023/09/04 12:18:10;;;;;;;1.30;0.57;;;27.90;33.40;;;;;;5135360;27;20432;-52
2023/09/04 12:20:36;;;;;;;1.00;0.40;;;27.80;31.10;;;;;;5135014;27;20453;-56
2023/09/04 12:23:02;;;;;;;1.20;0.60;;;27.90;33.80;;;;;;5134923;27;20831;-52
2023/09/04 12:25:44;;;;;;;1.47;0.60;;;28.10;35.10;;;;;;5134953;27;20483;-55
2023/09/04 12:28:14;;;;;;;1.30;0.67;;;28.40;34.60;;;;;;5135094;27;20420;-52
2023/09/04 12:30:50;;;;;;;1.30;0.67;;;28.50;34.90;;;;;;5135177;27;20384;-54
2023/09/04 12:33:18;;;;;;;1.60;0.80;;;28.50;34.10;;;;;;5133567;27;20894;-56
2023/09/04 12:35:54;;;;;;;1.00;0.50;;;28.50;33.60;;;;;;5134473;27;20515;-53
2023/09/04 12:38:20;;;;;;;1.10;0.40;;;28.50;30.30;;;;;;5134965;27;20482;-56
2023/09/04 12:40:46;;;;;;;1.47;0.60;;;28.40;30.20;;;;;;5134641;27;20898;-56
2023/09/04 12:43:12;;;;;;;1.00;0.40;;;28.50;33.60;;;;;;5134837;27;20419;-51
2023/09/04 12:45:38;;;;;;;1.00;0.30;;;28.60;34.20;;;;;;5134226;27;21000;-56
2023/09/04 12:48:16;;;;;;;1.93;1.27;;;28.70;34.10;;;;;;5133188;27;20191;-56